createdAt,value
2018-10-07T00:00:56.878Z,8.30
2018-10-07T00:03:26.328Z,9.55
2018-10-07T00:05:55.163Z,9.95
2018-10-07T00:08:24.011Z,9.45
2018-10-07T00:10:53.778Z,11.57
2018-10-07T00:13:22.656Z,13.03
2018-10-07T00:15:51.831Z,12.00
2018-10-07T00:18:20.574Z,13.13
2018-10-07T00:20:49.438Z,11.80
2018-10-07T00:23:19.158Z,11.80
2018-10-07T00:25:48.161Z,13.15
2018-10-07T00:28:17.939Z,12.98
2018-10-07T00:30:46.591Z,12.23
2018-10-07T00:33:16.379Z,14.47
2018-10-07T00:35:45.015Z,14.13
2018-10-07T00:38:13.826Z,12.28
2018-10-07T00:40:43.559Z,16.07
2018-10-07T00:43:12.236Z,12.65
2018-10-07T00:45:41.015Z,13.48
2018-10-07T00:48:10.230Z,14.10
2018-10-07T00:50:39.315Z,14.55
2018-10-07T00:53:08.135Z,16.02
2018-10-07T00:55:37.215Z,13.93
2018-10-07T00:58:06.235Z,13.20
2018-10-07T01:00:35.082Z,14.20
2018-10-07T01:03:04.320Z,12.40
2018-10-07T01:05:33.011Z,12.55
2018-10-07T01:08:01.973Z,13.18
2018-10-07T01:10:31.710Z,14.00
2018-10-07T01:13:01.467Z,13.40
2018-10-07T01:15:30.402Z,13.25
2018-10-07T01:17:59.554Z,13.68
2018-10-07T01:20:28.511Z,12.60
2018-10-07T01:22:58.646Z,12.85
2018-10-07T01:25:27.816Z,15.63
2018-10-07T01:27:56.587Z,13.95
2018-10-07T01:30:25.484Z,14.20
2018-10-07T01:32:55.906Z,14.70
2018-10-07T01:35:24.994Z,17.32
2018-10-07T01:37:53.902Z,16.40
2018-10-07T01:40:23.110Z,19.07
2018-10-07T01:42:51.835Z,18.95
2018-10-07T01:45:20.562Z,18.45
2018-10-07T01:47:49.675Z,18.75
2018-10-07T01:50:18.338Z,18.32
2018-10-07T01:52:47.635Z,18.40
2018-10-07T01:55:16.783Z,21.45
2018-10-07T01:57:45.793Z,19.57
2018-10-07T02:00:14.611Z,19.10
2018-10-07T02:02:43.751Z,19.07
2018-10-07T02:05:12.494Z,19.67
2018-10-07T02:07:41.263Z,25.72
2018-10-07T02:10:10.231Z,22.62
2018-10-07T02:12:39.042Z,21.57
2018-10-07T02:15:07.923Z,21.40
2018-10-07T02:17:37.272Z,25.27
2018-10-07T02:20:06.635Z,22.37
2018-10-07T02:22:35.635Z,23.12
2018-10-07T02:25:05.427Z,22.62
2018-10-07T02:27:34.288Z,21.23
2018-10-07T02:30:03.287Z,23.73
2018-10-07T02:32:32.251Z,23.45
2018-10-07T02:35:00.971Z,26.02
2018-10-07T02:37:29.777Z,24.40
2018-10-07T02:39:58.632Z,24.35
2018-10-07T02:42:27.519Z,24.27
2018-10-07T02:44:56.933Z,20.97
2018-10-07T02:47:25.916Z,21.82
2018-10-07T02:49:55.143Z,21.12
2018-10-07T02:52:30.056Z,22.27
2018-10-07T02:54:58.864Z,22.70
2018-10-07T02:57:28.319Z,22.98
2018-10-07T02:59:57.168Z,24.25
2018-10-07T03:02:25.860Z,26.30
2018-10-07T03:04:54.976Z,24.35
2018-10-07T03:07:24.569Z,26.48
2018-10-07T03:09:53.582Z,26.37
2018-10-07T03:12:22.592Z,25.85
2018-10-07T03:14:51.761Z,28.27
2018-10-07T03:17:20.579Z,28.55
2018-10-07T03:19:49.907Z,27.07
2018-10-07T03:22:19.078Z,27.07
2018-10-07T03:24:48.845Z,29.45
2018-10-07T03:27:17.829Z,28.17
2018-10-07T03:29:47.719Z,27.75
2018-10-07T03:32:16.635Z,29.10
2018-10-07T03:34:45.379Z,30.77
2018-10-07T03:37:15.671Z,29.60
2018-10-07T03:39:44.598Z,29.82
2018-10-07T03:42:13.395Z,31.25
2018-10-07T03:44:42.320Z,29.75
2018-10-07T03:47:11.528Z,32.00
2018-10-07T03:49:40.970Z,32.83
2018-10-07T03:52:10.126Z,31.52
2018-10-07T03:54:39.224Z,31.23
2018-10-07T03:57:08.223Z,32.20
2018-10-07T03:59:37.682Z,29.70
2018-10-07T04:02:06.830Z,28.57
2018-10-07T04:04:35.866Z,26.87
2018-10-07T04:07:05.564Z,28.52
2018-10-07T04:09:34.757Z,31.97
2018-10-07T04:12:04.115Z,32.75
2018-10-07T04:14:33.346Z,27.98
2018-10-07T04:17:02.514Z,29.75
2018-10-07T04:19:31.526Z,29.77
2018-10-07T04:22:01.003Z,32.53
2018-10-07T04:24:31.632Z,29.50
2018-10-07T04:27:00.620Z,30.85
2018-10-07T04:29:29.706Z,31.02
2018-10-07T04:31:58.851Z,30.10
2018-10-07T04:34:27.914Z,30.35
2018-10-07T04:36:57.338Z,35.38
2018-10-07T04:39:26.458Z,31.62
2018-10-07T04:41:55.370Z,34.53
2018-10-07T04:44:24.756Z,28.45
2018-10-07T04:46:53.783Z,28.57
2018-10-07T04:49:22.947Z,30.95
2018-10-07T04:51:52.166Z,29.85
2018-10-07T04:54:21.304Z,21.82
2018-10-07T04:56:50.362Z,20.25
2018-10-07T04:59:20.025Z,24.18
2018-10-07T05:01:49.238Z,26.93
2018-10-07T05:04:18.807Z,25.88
2018-10-07T05:06:48.040Z,21.93
2018-10-07T05:09:17.229Z,20.95
2018-10-07T05:11:46.578Z,23.22
2018-10-07T05:14:16.041Z,19.32
2018-10-07T05:16:48.901Z,18.95
2018-10-07T05:19:18.241Z,20.97
2018-10-07T05:21:47.544Z,21.25
2018-10-07T05:24:17.179Z,23.50
2018-10-07T05:26:46.412Z,22.62
2018-10-07T05:29:15.639Z,24.92
2018-10-07T05:31:44.925Z,21.62
2018-10-07T05:34:13.970Z,18.82
2018-10-07T05:36:43.243Z,19.77
2018-10-07T05:39:13.634Z,18.45
2018-10-07T05:41:42.871Z,15.23
2018-10-07T05:44:12.214Z,15.32
2018-10-07T05:46:41.581Z,15.25
2018-10-07T05:49:11.079Z,12.58
2018-10-07T05:51:40.157Z,11.22
2018-10-07T05:54:09.483Z,12.33
2018-10-07T05:56:38.563Z,11.97
2018-10-07T05:59:08.687Z,12.07
2018-10-07T06:01:42.876Z,13.72
2018-10-07T06:04:48.900Z,13.10
2018-10-07T06:07:18.515Z,10.85
2018-10-07T06:09:47.888Z,11.20
2018-10-07T06:12:17.188Z,13.25
2018-10-07T06:14:57.643Z,12.18
2018-10-07T06:17:26.851Z,13.62
2018-10-07T06:19:56.039Z,13.15
2018-10-07T06:22:25.877Z,12.18
2018-10-07T06:24:55.123Z,19.27
2018-10-07T06:27:24.284Z,12.43
2018-10-07T06:29:53.593Z,11.60
2018-10-07T06:32:22.726Z,11.22
2018-10-07T06:34:51.954Z,11.45
2018-10-07T06:37:21.304Z,12.43
2018-10-07T06:39:50.444Z,13.10
2018-10-07T06:42:19.564Z,13.80
2018-10-07T06:44:48.814Z,12.85
2018-10-07T06:47:17.937Z,12.95
2018-10-07T06:49:47.191Z,20.48
2018-10-07T06:52:16.542Z,14.00
2018-10-07T06:54:45.626Z,18.42
2018-10-07T06:57:14.821Z,13.72
2018-10-07T06:59:44.179Z,13.83
2018-10-07T07:02:13.291Z,13.93
2018-10-07T07:04:42.472Z,14.53
2018-10-07T07:07:11.904Z,13.80
2018-10-07T07:09:41.122Z,17.52
2018-10-07T07:12:10.351Z,14.95
2018-10-07T07:14:39.577Z,14.50
2018-10-07T07:17:08.460Z,13.60
2018-10-07T07:19:37.693Z,14.95
2018-10-07T07:22:07.351Z,15.50
2018-10-07T07:24:36.379Z,16.70
2018-10-07T07:27:05.654Z,15.75
2018-10-07T07:29:35.105Z,14.70
2018-10-07T07:32:04.231Z,16.48
2018-10-07T07:34:33.344Z,13.98
2018-10-07T07:37:02.943Z,14.23
2018-10-07T07:39:32.067Z,13.50
2018-10-07T07:42:02.286Z,14.65
2018-10-07T07:44:31.754Z,12.85
2018-10-07T07:47:00.859Z,15.80
2018-10-07T07:49:30.004Z,14.28
2018-10-07T07:51:59.105Z,14.80
2018-10-07T07:54:28.112Z,15.65
2018-10-07T07:56:57.242Z,15.70
2018-10-07T07:59:26.573Z,15.10
2018-10-07T08:01:55.598Z,15.40
2018-10-07T08:04:24.796Z,13.60
2018-10-07T08:06:54.316Z,19.65
2018-10-07T08:09:23.415Z,16.50
2018-10-07T08:11:52.594Z,13.38
2018-10-07T08:14:21.847Z,15.38
2018-10-07T08:16:51.103Z,15.70
2018-10-07T08:19:20.387Z,17.00
2018-10-07T08:21:49.894Z,16.07
2018-10-07T08:24:18.906Z,15.48
2018-10-07T08:26:48.099Z,16.27
2018-10-07T08:29:17.471Z,17.27
2018-10-07T08:31:46.779Z,16.77
2018-10-07T08:34:15.951Z,16.73
2018-10-07T08:36:45.107Z,17.00
2018-10-07T08:39:14.210Z,18.40
2018-10-07T08:41:43.340Z,16.82
2018-10-07T08:44:12.615Z,17.32
2018-10-07T08:46:43.527Z,22.82
2018-10-07T08:49:12.873Z,17.70
2018-10-07T08:51:42.570Z,15.28
2018-10-07T08:54:11.860Z,16.55
2018-10-07T08:56:41.559Z,18.48
2018-10-07T08:59:10.903Z,16.70
2018-10-07T09:01:41.043Z,17.92
2018-10-07T09:04:12.069Z,14.15
2018-10-07T09:06:43.472Z,14.68
2018-10-07T09:09:13.340Z,12.30
2018-10-07T09:11:45.551Z,13.43
2018-10-07T09:14:14.998Z,14.05
2018-10-07T09:16:44.167Z,13.88
2018-10-07T09:19:13.498Z,13.38
2018-10-07T09:21:46.126Z,16.15
2018-10-07T09:24:16.253Z,14.15
2018-10-07T09:26:45.676Z,12.88
2018-10-07T09:29:17.141Z,15.25
2018-10-07T09:31:46.319Z,13.22
2018-10-07T09:34:15.555Z,12.78
2018-10-07T09:36:44.951Z,14.33
2018-10-07T09:39:14.007Z,12.80
2018-10-07T09:41:43.146Z,14.03
2018-10-07T09:44:12.588Z,11.28
2018-10-07T09:46:42.199Z,15.23
2018-10-07T09:49:11.503Z,11.78
2018-10-07T09:51:41.151Z,13.50
2018-10-07T09:54:10.706Z,13.58
2018-10-07T09:56:40.007Z,11.15
2018-10-07T09:59:10.775Z,12.65
2018-10-07T10:01:40.059Z,10.25
2018-10-07T10:04:13.109Z,13.15
2018-10-07T10:06:42.194Z,6.85
2018-10-07T10:09:15.614Z,7.10
2018-10-07T10:11:44.530Z,7.83
2018-10-07T10:14:13.622Z,8.20
2018-10-07T10:16:50.750Z,7.35
2018-10-07T10:19:26.561Z,7.53
2018-10-07T10:23:06.066Z,7.78
2018-10-07T10:25:57.847Z,6.08
2018-10-07T10:28:43.742Z,6.12
2018-10-07T10:31:16.511Z,6.47
2018-10-07T10:33:49.611Z,7.85
2018-10-07T10:37:29.262Z,5.85
2018-10-07T10:40:00.768Z,5.37
2018-10-07T10:43:49.499Z,3.42
2018-10-07T10:46:27.971Z,4.30
2018-10-07T10:49:07.116Z,3.90
2018-10-07T10:51:45.034Z,10.58
2018-10-07T10:54:23.464Z,3.95
2018-10-07T10:56:57.787Z,6.10
2018-10-07T11:00:34.441Z,4.55
2018-10-07T11:03:18.288Z,3.60
2018-10-07T11:07:57.329Z,3.92
2018-10-07T11:10:31.979Z,3.98
2018-10-07T11:13:19.052Z,3.25
2018-10-07T11:16:53.839Z,4.33
2018-10-07T11:19:28.024Z,5.45
2018-10-07T11:22:11.892Z,3.52
2018-10-07T11:24:49.148Z,5.05
2018-10-07T11:27:30.470Z,4.62
2018-10-07T11:32:14.475Z,3.75
2018-10-07T11:35:02.100Z,2.85
2018-10-07T11:37:53.066Z,2.45
2018-10-07T11:42:37.026Z,3.50
2018-10-07T11:45:13.155Z,4.17
2018-10-07T11:47:50.739Z,6.33
2018-10-07T11:50:28.691Z,2.80
2018-10-07T11:53:04.833Z,6.53
2018-10-07T11:55:34.037Z,6.28
2018-10-07T11:58:03.340Z,6.05
2018-10-07T12:00:33.007Z,3.80
2018-10-07T12:03:02.212Z,4.70
2018-10-07T12:05:31.026Z,3.47
2018-10-07T12:07:59.939Z,2.20
2018-10-07T12:10:28.867Z,2.87
2018-10-07T12:12:57.912Z,4.15
2018-10-07T12:15:26.952Z,2.30
2018-10-07T12:17:55.689Z,4.10
2018-10-07T12:20:24.723Z,2.35
2018-10-07T12:22:53.939Z,2.47
2018-10-07T12:25:22.978Z,4.00
2018-10-07T12:27:51.759Z,4.12
2018-10-07T12:30:21.035Z,5.12
2018-10-07T12:32:49.855Z,3.22
2018-10-07T12:35:19.538Z,4.03
2018-10-07T12:37:48.863Z,3.17
2018-10-07T12:40:18.060Z,3.00
2018-10-07T12:42:47.208Z,5.03
2018-10-07T12:45:16.337Z,1.75
2018-10-07T12:47:45.454Z,3.83
2018-10-07T12:50:14.642Z,7.92
2018-10-07T12:52:44.192Z,2.50
2018-10-07T12:55:13.169Z,2.35
2018-10-07T12:57:42.164Z,0.78
2018-10-07T13:00:11.743Z,2.33
2018-10-07T13:02:40.967Z,2.67
2018-10-07T13:05:09.865Z,2.37
2018-10-07T13:07:38.783Z,0.70
2018-10-07T13:10:08.142Z,2.95
2018-10-07T13:12:37.135Z,2.12
2018-10-07T13:15:06.979Z,1.17
2018-10-07T13:17:36.083Z,1.17
2018-10-07T13:20:05.063Z,1.07
2018-10-07T13:22:34.829Z,1.75
2018-10-07T13:25:03.760Z,4.03
2018-10-07T13:27:32.760Z,1.50
2018-10-07T13:30:01.736Z,2.22
2018-10-07T13:32:31.132Z,1.70
2018-10-07T13:35:00.478Z,1.77
2018-10-07T13:37:29.989Z,1.47
2018-10-07T13:39:59.126Z,0.72
2018-10-07T13:42:28.255Z,4.70
2018-10-07T13:44:57.438Z,1.05
2018-10-07T13:47:26.668Z,1.42
2018-10-07T13:49:56.172Z,1.45
2018-10-07T13:52:24.938Z,2.22
2018-10-07T13:54:53.955Z,3.08
2018-10-07T13:57:23.462Z,1.62
2018-10-07T13:59:52.558Z,0.95
2018-10-07T14:02:21.448Z,2.10
2018-10-07T14:04:50.670Z,2.25
2018-10-07T14:07:19.431Z,1.05
2018-10-07T14:09:48.939Z,5.35
2018-10-07T14:12:18.360Z,3.33
2018-10-07T14:14:47.187Z,5.55
2018-10-07T14:17:16.433Z,4.12
2018-10-07T14:19:46.038Z,1.50
2018-10-07T14:22:15.286Z,1.77
2018-10-07T14:24:44.335Z,1.35
2018-10-07T14:27:13.703Z,3.42
2018-10-07T14:29:42.539Z,2.65
2018-10-07T14:32:11.536Z,4.55
2018-10-07T14:34:40.640Z,3.15
2018-10-07T14:37:09.830Z,3.00
2018-10-07T14:39:39.137Z,4.00
2018-10-07T14:42:08.639Z,1.40
2018-10-07T14:44:37.819Z,0.98
2018-10-07T14:47:06.672Z,1.95
2018-10-07T14:49:35.925Z,3.17
2018-10-07T14:52:04.891Z,1.60
2018-10-07T14:54:33.716Z,4.28
2018-10-07T14:57:03.228Z,1.22
2018-10-07T14:59:32.194Z,2.95
2018-10-07T15:02:01.607Z,1.00
2018-10-07T15:04:30.524Z,1.90
2018-10-07T15:06:59.382Z,2.85
2018-10-07T15:09:29.036Z,1.77
2018-10-07T15:11:58.329Z,2.85
2018-10-07T15:14:27.512Z,2.40
2018-10-07T15:16:56.402Z,1.47
2018-10-07T15:19:25.231Z,5.47
2018-10-07T15:21:54.287Z,2.12
2018-10-07T15:24:23.327Z,2.60
2018-10-07T15:26:52.543Z,3.70
2018-10-07T15:29:21.480Z,4.28
2018-10-07T15:31:50.412Z,8.25
2018-10-07T15:34:19.581Z,2.47
2018-10-07T15:36:48.756Z,7.70
2018-10-07T15:39:18.095Z,5.22
2018-10-07T15:41:47.522Z,6.62
2018-10-07T15:44:16.296Z,5.50
2018-10-07T15:46:45.443Z,7.00
2018-10-07T15:49:14.680Z,7.08
2018-10-07T15:51:44.369Z,6.72
2018-10-07T15:54:13.352Z,8.05
2018-10-07T15:56:42.120Z,2.40
2018-10-07T15:59:11.031Z,5.65
2018-10-07T16:01:39.918Z,3.30
2018-10-07T16:04:09.442Z,7.65
2018-10-07T16:06:38.320Z,5.60
2018-10-07T16:09:09.054Z,2.98
2018-10-07T16:11:38.343Z,3.12
2018-10-07T16:14:07.226Z,6.45
2018-10-07T16:16:36.704Z,5.28
2018-10-07T16:19:05.903Z,5.75
2018-10-07T16:21:35.052Z,7.35
2018-10-07T16:24:04.260Z,4.45
2018-10-07T16:26:33.828Z,4.80
2018-10-07T16:29:03.571Z,3.85
2018-10-07T16:31:32.662Z,7.30
2018-10-07T16:34:01.562Z,6.25
2018-10-07T16:36:30.570Z,5.22
2018-10-07T16:38:59.435Z,5.90
2018-10-07T16:41:28.415Z,5.55
2018-10-07T16:43:57.444Z,3.77
2018-10-07T16:46:26.863Z,4.37
2018-10-07T16:48:55.924Z,3.50
2018-10-07T16:51:24.738Z,6.08
2018-10-07T16:53:54.054Z,3.33
2018-10-07T16:56:23.131Z,3.15
2018-10-07T16:58:52.130Z,8.25
2018-10-07T17:01:21.419Z,2.85
2018-10-07T17:03:50.127Z,3.95
2018-10-07T17:06:19.532Z,7.80
2018-10-07T17:08:49.051Z,7.15
2018-10-07T17:11:18.032Z,2.85
2018-10-07T17:13:46.927Z,5.45
2018-10-07T17:16:16.346Z,3.55
2018-10-07T17:18:45.516Z,4.85
2018-10-07T17:21:14.689Z,4.28
2018-10-07T17:23:43.930Z,5.30
2018-10-07T17:26:12.760Z,4.47
2018-10-07T17:28:41.895Z,4.78
2018-10-07T17:31:10.848Z,5.50
2018-10-07T17:33:40.005Z,5.28
2018-10-07T17:36:09.106Z,6.12
2018-10-07T17:38:38.395Z,5.65
2018-10-07T17:41:07.422Z,6.08
2018-10-07T17:43:36.383Z,8.48
2018-10-07T17:46:06.625Z,11.50
2018-10-07T17:48:35.837Z,5.65
2018-10-07T17:51:04.694Z,8.28
2018-10-07T17:53:33.823Z,5.67
2018-10-07T17:56:02.674Z,6.42
2018-10-07T17:58:31.582Z,5.47
2018-10-07T18:01:00.391Z,5.90
2018-10-07T18:03:29.371Z,6.20
2018-10-07T18:05:58.223Z,7.03
2018-10-07T18:08:27.555Z,4.08
2018-10-07T18:10:57.438Z,3.40
2018-10-07T18:13:26.355Z,6.62
2018-10-07T18:15:55.472Z,6.10
2018-10-07T18:18:24.455Z,3.47
2018-10-07T18:20:53.239Z,3.90
2018-10-07T18:23:22.602Z,3.72
2018-10-07T18:25:51.499Z,4.05
2018-10-07T18:28:20.328Z,2.95
2018-10-07T18:30:50.087Z,2.90
2018-10-07T18:33:18.922Z,2.80
2018-10-07T18:35:47.909Z,3.20
2018-10-07T18:38:17.408Z,6.80
2018-10-07T18:40:46.154Z,3.72
2018-10-07T18:43:15.281Z,3.50
2018-10-07T18:45:44.434Z,2.67
2018-10-07T18:48:13.527Z,5.72
2018-10-07T18:50:42.474Z,3.42
2018-10-07T18:53:11.736Z,4.67
2018-10-07T18:55:41.006Z,4.03
2018-10-07T18:58:09.688Z,3.35
2018-10-07T19:00:39.118Z,2.75
2018-10-07T19:03:08.083Z,4.47
2018-10-07T19:05:36.951Z,4.78
2018-10-07T19:08:05.989Z,3.85
2018-10-07T19:10:35.043Z,2.85
2018-10-07T19:13:03.946Z,3.27
2018-10-07T19:15:33.264Z,3.67
2018-10-07T19:18:02.355Z,4.10
2018-10-07T19:20:31.260Z,5.95
2018-10-07T19:23:00.370Z,4.35
2018-10-07T19:25:29.455Z,4.55
2018-10-07T19:27:58.451Z,3.47
2018-10-07T19:30:27.667Z,4.87
2018-10-07T19:32:56.751Z,4.42
2018-10-07T19:35:25.845Z,4.83
2018-10-07T19:37:54.866Z,8.45
2018-10-07T19:40:23.826Z,5.53
2018-10-07T19:42:52.829Z,5.92
2018-10-07T19:45:21.919Z,7.42
2018-10-07T19:47:50.974Z,7.22
2018-10-07T19:50:19.802Z,7.10
2018-10-07T19:52:48.876Z,6.92
2018-10-07T19:55:18.974Z,7.17
2018-10-07T19:57:47.850Z,7.03
2018-10-07T20:00:17.655Z,7.42
2018-10-07T20:02:46.684Z,7.33
2018-10-07T20:05:15.774Z,7.53
2018-10-07T20:07:44.995Z,7.28
2018-10-07T20:10:13.912Z,6.90
2018-10-07T20:12:42.866Z,9.35
2018-10-07T20:15:12.179Z,8.33
2018-10-07T20:17:40.987Z,7.72
2018-10-07T20:20:09.903Z,7.75
2018-10-07T20:22:38.971Z,7.95
2018-10-07T20:25:07.990Z,6.83
2018-10-07T20:27:37.079Z,7.25
2018-10-07T20:30:06.359Z,8.28
2018-10-07T20:32:35.262Z,6.72
2018-10-07T20:35:04.100Z,7.20
2018-10-07T20:37:33.488Z,11.50
2018-10-07T20:40:02.567Z,8.93
2018-10-07T20:42:31.459Z,6.85
2018-10-07T20:45:00.488Z,6.97
2018-10-07T20:47:29.550Z,6.25
2018-10-07T20:49:58.430Z,7.97
2018-10-07T20:52:29.625Z,6.58
2018-10-07T20:54:58.575Z,6.90
2018-10-07T20:57:27.679Z,8.78
2018-10-07T20:59:56.703Z,7.05
2018-10-07T21:02:25.974Z,9.03
2018-10-07T21:04:54.938Z,8.78
2018-10-07T21:07:24.236Z,7.60
2018-10-07T21:09:53.149Z,11.55
2018-10-07T21:12:21.996Z,8.75
2018-10-07T21:14:51.410Z,6.08
2018-10-07T21:17:20.439Z,7.95
2018-10-07T21:19:49.335Z,13.13
2018-10-07T21:22:18.555Z,14.20
2018-10-07T21:24:47.544Z,11.50
2018-10-07T21:27:16.610Z,12.47
2018-10-07T21:29:45.975Z,14.47
2018-10-07T21:32:14.926Z,14.78
2018-10-07T21:34:43.715Z,9.58
2018-10-07T21:37:12.690Z,13.32
2018-10-07T21:39:41.819Z,13.55
2018-10-07T21:42:10.597Z,13.72
2018-10-07T21:44:39.675Z,12.60
2018-10-07T21:47:08.530Z,14.73
2018-10-07T21:49:37.927Z,15.65
2018-10-07T21:52:07.079Z,12.82
2018-10-07T21:54:36.034Z,15.00
2018-10-07T21:57:04.919Z,13.60
2018-10-07T21:59:33.880Z,12.03
2018-10-07T22:02:03.078Z,15.38
2018-10-07T22:04:33.189Z,18.85
2018-10-07T22:07:03.613Z,15.15
2018-10-07T22:09:32.402Z,19.82
2018-10-07T22:12:01.961Z,16.50
2018-10-07T22:14:31.263Z,13.08
2018-10-07T22:17:00.135Z,14.68
2018-10-07T22:19:28.990Z,14.40
2018-10-07T22:21:58.012Z,14.78
2018-10-07T22:24:27.199Z,13.48
2018-10-07T22:26:56.335Z,16.35
2018-10-07T22:29:25.863Z,13.55
2018-10-07T22:31:54.895Z,15.43
2018-10-07T22:34:24.068Z,14.87
2018-10-07T22:36:53.403Z,15.60
2018-10-07T22:39:22.544Z,14.93
2018-10-07T22:41:51.638Z,14.75
2018-10-07T22:44:21.115Z,15.95
2018-10-07T22:46:50.144Z,17.52
2018-10-07T22:49:19.382Z,14.43
2018-10-07T22:51:48.599Z,20.50
2018-10-07T22:54:17.684Z,16.85
2018-10-07T22:56:46.854Z,16.37
2018-10-07T22:59:16.339Z,15.43
2018-10-07T23:01:45.452Z,15.65
2018-10-07T23:04:14.595Z,12.93
2018-10-07T23:06:44.207Z,13.32
2018-10-07T23:09:13.915Z,14.03
2018-10-07T23:11:43.438Z,14.87
2018-10-07T23:14:12.931Z,14.45
2018-10-07T23:16:42.222Z,15.48
2018-10-07T23:19:11.412Z,15.23
2018-10-07T23:21:40.875Z,15.88
2018-10-07T23:24:09.967Z,13.80
2018-10-07T23:26:39.096Z,13.72
2018-10-07T23:29:08.447Z,19.00
2018-10-07T23:31:37.353Z,15.75
2018-10-07T23:34:06.452Z,16.62
2018-10-07T23:36:35.755Z,13.95
2018-10-07T23:39:06.445Z,17.82
2018-10-07T23:41:35.479Z,21.85
2018-10-07T23:44:04.764Z,16.70
2018-10-07T23:46:33.883Z,15.58
2018-10-07T23:49:03.139Z,18.65
2018-10-07T23:51:32.531Z,16.87
2018-10-07T23:54:02.130Z,15.80
2018-10-07T23:56:31.223Z,15.10
2018-10-07T23:59:00.751Z,12.68
